Time;durP1;ratioP1;P1;durP2;ratioP2;P2;SDS_P1;SDS_P2;PMS_P1;PMS_P2;Temp;Humidity;BMP_temperature;BMP_pressure;BME280_temperature;BME280_humidity;BME280_pressure;Samples;Min_cycle;Max_cycle;Signal;HPM_P1;HPM_P2
2023/09/07 00:01:37;;;;;;;8.80;2.95;;;21.50;99.90;;;;;;5134707;27;20118;-80
2023/09/07 00:04:23;;;;;;;4.93;2.60;;;21.50;99.90;;;;;;5133866;27;20047;-76
2023/09/07 00:07:09;;;;;;;7.60;3.65;;;21.40;99.90;;;;;;5119571;27;20050;-78
2023/09/07 00:09:55;;;;;;;9.57;3.28;;;21.40;99.90;;;;;;5133976;27;20055;-73
2023/09/07 00:12:41;;;;;;;6.63;3.25;;;21.40;99.90;;;;;;5135835;27;20055;-77
2023/09/07 00:15:27;;;;;;;4.78;2.85;;;21.40;99.90;;;;;;5103338;27;20051;-79
2023/09/07 00:18:13;;;;;;;7.20;2.92;;;21.30;99.90;;;;;;5115217;27;20051;-72
2023/09/07 00:21:00;;;;;;;7.25;3.10;;;21.30;99.90;;;;;;5115717;27;20139;-85
2023/09/07 00:23:46;;;;;;;11.98;3.28;;;21.30;99.90;;;;;;5132989;27;20089;-85
2023/09/07 00:26:33;;;;;;;5.03;2.60;;;21.20;99.90;;;;;;5115491;27;20060;-83
2023/09/07 00:29:19;;;;;;;10.52;3.95;;;21.20;99.90;;;;;;5134939;27;20055;-86
2023/09/07 00:32:05;;;;;;;6.50;2.70;;;21.10;99.90;;;;;;5137126;27;20043;-74
2023/09/07 00:34:51;;;;;;;7.85;3.05;;;21.10;99.90;;;;;;5136138;27;20043;-81
2023/09/07 00:37:38;;;;;;;6.32;3.42;;;21.10;99.90;;;;;;5134204;27;20050;-85
2023/09/07 00:40:25;;;;;;;5.80;2.90;;;21.00;99.90;;;;;;5133282;27;20615;-72
2023/09/07 00:43:11;;;;;;;7.47;3.38;;;21.00;99.90;;;;;;5133601;27;20058;-83
2023/09/07 00:45:57;;;;;;;6.85;3.17;;;20.90;99.90;;;;;;5136596;27;20047;-81
2023/09/07 00:48:43;;;;;;;6.85;3.90;;;20.90;99.90;;;;;;5139325;27;20130;-73
2023/09/07 00:51:30;;;;;;;6.88;3.22;;;20.80;99.90;;;;;;5138997;27;20082;-86
2023/09/07 00:54:16;;;;;;;6.65;3.92;;;20.80;99.90;;;;;;5138277;27;20043;-79
2023/09/07 00:57:03;;;;;;;6.93;3.72;;;20.70;99.90;;;;;;5134597;27;20055;-72
2023/09/07 00:59:49;;;;;;;8.55;3.58;;;20.70;99.90;;;;;;5115011;27;20477;-81
2023/09/07 01:02:35;;;;;;;10.10;3.58;;;20.60;99.90;;;;;;5132822;27;20143;-82
2023/09/07 01:05:44;;;;;;;7.15;3.30;;;20.60;99.90;;;;;;5118008;27;20047;-75
2023/09/07 01:08:38;;;;;;;5.72;3.28;;;20.60;99.90;;;;;;5137383;27;20050;-82
2023/09/07 01:11:25;;;;;;;8.48;3.20;;;20.50;99.90;;;;;;5114485;27;20050;-79
2023/09/07 01:14:11;;;;;;;8.55;3.10;;;20.50;99.90;;;;;;5134368;27;20146;-72
2023/09/07 01:16:57;;;;;;;10.48;3.42;;;20.40;99.90;;;;;;5116907;27;20046;-80
2023/09/07 01:19:45;;;;;;;11.93;3.50;;;20.40;99.90;;;;;;5133040;27;20070;-83
2023/09/07 01:22:32;;;;;;;5.75;3.13;;;20.40;99.90;;;;;;5132708;27;20054;-83
2023/09/07 01:25:19;;;;;;;6.90;3.67;;;20.30;99.90;;;;;;5133810;27;20498;-73
2023/09/07 01:28:06;;;;;;;10.00;3.58;;;20.30;99.90;;;;;;5115971;27;20108;-80
2023/09/07 01:30:52;;;;;;;8.45;3.55;;;20.20;99.90;;;;;;5132781;27;20058;-77
2023/09/07 01:33:38;;;;;;;9.98;4.30;;;20.20;99.90;;;;;;5113682;27;20129;-73
2023/09/07 01:36:24;;;;;;;6.18;3.50;;;20.20;99.90;;;;;;5100139;27;20043;-71
2023/09/07 01:39:11;;;;;;;9.98;3.55;;;20.10;99.90;;;;;;5132635;27;20107;-75
2023/09/07 01:41:57;;;;;;;12.98;4.07;;;20.10;99.90;;;;;;5114174;27;20149;-71
2023/09/07 01:44:43;;;;;;;9.27;3.47;;;20.10;99.90;;;;;;5132691;27;20044;-82
2023/09/07 01:47:29;;;;;;;6.80;3.25;;;20.00;99.90;;;;;;5117355;27;20051;-73
2023/09/07 01:50:15;;;;;;;7.97;3.08;;;19.90;99.90;;;;;;5114334;27;20090;-78
2023/09/07 01:53:03;;;;;;;5.78;3.30;;;19.80;99.90;;;;;;5134284;27;20451;-80
2023/09/07 01:55:49;;;;;;;6.18;3.40;;;19.80;99.90;;;;;;5131695;27;20047;-80
2023/09/07 01:58:36;;;;;;;7.47;4.07;;;19.60;99.90;;;;;;5116886;27;20046;-85
2023/09/07 02:01:29;;;;;;;7.50;4.00;;;19.60;99.90;;;;;;5131652;27;20482;-79
2023/09/07 02:04:15;;;;;;;12.90;4.18;;;19.50;99.90;;;;;;5133376;27;20050;-84
2023/09/07 02:07:01;;;;;;;6.50;4.28;;;19.40;99.90;;;;;;5132349;27;20051;-74
2023/09/07 02:09:47;;;;;;;7.15;3.67;;;19.30;99.90;;;;;;5116339;27;20074;-84
2023/09/07 02:12:33;;;;;;;7.20;3.72;;;19.20;99.90;;;;;;5099812;27;20057;-83
2023/09/07 02:15:19;;;;;;;7.78;4.20;;;19.20;99.90;;;;;;5132818;27;20055;-85
2023/09/07 02:18:05;;;;;;;8.60;3.95;;;19.10;99.90;;;;;;5132737;27;20043;-83
2023/09/07 02:20:51;;;;;;;6.15;3.53;;;19.10;99.90;;;;;;5132708;27;20043;-84
2023/09/07 02:23:37;;;;;;;5.20;3.70;;;19.00;99.90;;;;;;5132302;27;20086;-85
2023/09/07 02:26:24;;;;;;;8.27;4.45;;;19.00;99.90;;;;;;5131336;27;20059;-80
2023/09/07 02:29:10;;;;;;;8.57;4.20;;;18.90;99.90;;;;;;5134377;27;20062;-71
2023/09/07 02:31:57;;;;;;;6.38;4.30;;;18.90;99.90;;;;;;5132064;27;20051;-79
2023/09/07 02:34:43;;;;;;;13.45;4.07;;;18.90;99.90;;;;;;5099348;27;20456;-80
2023/09/07 02:37:29;;;;;;;8.93;4.65;;;18.90;99.90;;;;;;5131192;27;20051;-78
2023/09/07 02:40:15;;;;;;;8.13;4.45;;;18.90;99.90;;;;;;5132130;27;20154;-71
2023/09/07 02:43:01;;;;;;;6.90;4.03;;;18.90;99.90;;;;;;5113213;27;20127;-82
2023/09/07 02:45:49;;;;;;;8.50;4.30;;;18.90;99.90;;;;;;5115970;27;20562;-77
2023/09/07 02:48:35;;;;;;;9.05;4.45;;;18.90;99.90;;;;;;5134119;27;20062;-76
2023/09/07 02:51:21;;;;;;;8.80;4.35;;;18.90;99.90;;;;;;5132627;28;20043;-82
2023/09/07 02:54:07;;;;;;;9.70;4.57;;;18.90;99.90;;;;;;5130957;28;20155;-77
2023/09/07 02:56:53;;;;;;;7.57;4.55;;;18.90;99.90;;;;;;5132342;28;20043;-77
2023/09/07 02:59:40;;;;;;;11.98;5.22;;;18.90;99.90;;;;;;5113055;28;20059;-79
2023/09/07 03:02:27;;;;;;;8.75;4.18;;;18.90;99.90;;;;;;5113490;28;20150;-85
2023/09/07 03:05:13;;;;;;;9.60;5.57;;;18.90;99.90;;;;;;5131236;28;20490;-70
2023/09/07 03:07:59;;;;;;;8.95;5.10;;;18.90;99.90;;;;;;5113721;28;20062;-71
2023/09/07 03:10:45;;;;;;;8.80;4.45;;;18.90;99.90;;;;;;5131393;28;20059;-71
2023/09/07 03:13:31;;;;;;;10.35;5.22;;;18.90;99.90;;;;;;5130972;28;20141;-74
2023/09/07 03:16:18;;;;;;;7.53;4.60;;;18.90;99.90;;;;;;5112959;28;20577;-71
2023/09/07 03:19:04;;;;;;;7.45;4.47;;;18.80;99.90;;;;;;5131397;28;20154;-88
2023/09/07 03:21:50;;;;;;;9.23;5.70;;;18.80;99.90;;;;;;5130652;28;20043;-73
2023/09/07 03:24:36;;;;;;;8.05;4.75;;;18.80;99.90;;;;;;5112898;28;20510;-71
2023/09/07 03:27:22;;;;;;;6.63;4.80;;;18.70;99.90;;;;;;5131799;28;20504;-71
2023/09/07 03:30:08;;;;;;;9.80;5.80;;;18.70;99.90;;;;;;5132527;28;20051;-71
2023/09/07 03:32:54;;;;;;;7.78;4.90;;;18.70;99.90;;;;;;5112911;27;20418;-72
2023/09/07 03:35:40;;;;;;;10.02;4.93;;;18.70;99.90;;;;;;5135159;27;20062;-74
2023/09/07 03:38:26;;;;;;;9.65;6.00;;;18.70;99.90;;;;;;5135467;27;20051;-72
2023/09/07 03:41:12;;;;;;;8.30;5.03;;;18.60;99.90;;;;;;5135054;27;20108;-70
2023/09/07 03:43:59;;;;;;;9.57;5.50;;;18.60;99.90;;;;;;5134729;27;20079;-72
2023/09/07 03:46:44;;;;;;;8.75;5.20;;;18.60;99.90;;;;;;5134865;27;20043;-73
2023/09/07 03:49:30;;;;;;;9.02;4.97;;;18.50;99.90;;;;;;5135211;27;20043;-79
2023/09/07 03:52:16;;;;;;;11.20;5.45;;;18.50;99.90;;;;;;5135353;27;20135;-73
2023/09/07 03:55:03;;;;;;;7.63;4.65;;;18.50;99.90;;;;;;5134613;27;20127;-76
2023/09/07 03:57:49;;;;;;;9.25;5.20;;;18.50;99.90;;;;;;5134126;27;20216;-73
2023/09/07 04:00:37;;;;;;;8.95;5.18;;;18.50;99.90;;;;;;5119557;27;20054;-73
2023/09/07 04:03:23;;;;;;;18.38;6.03;;;18.50;99.90;;;;;;5134429;27;20410;-81
2023/09/07 04:06:09;;;;;;;8.65;5.65;;;18.40;99.90;;;;;;5135554;27;20499;-75
2023/09/07 04:08:55;;;;;;;13.23;6.10;;;18.40;99.90;;;;;;5133934;27;20115;-79
2023/09/07 04:11:41;;;;;;;8.40;5.00;;;18.40;99.90;;;;;;5134601;27;20448;-73
2023/09/07 04:14:29;;;;;;;9.70;5.70;;;18.40;99.90;;;;;;5133947;27;20804;-73
2023/09/07 04:17:15;;;;;;;8.13;5.00;;;18.50;99.90;;;;;;5115958;27;20567;-71
2023/09/07 04:20:01;;;;;;;9.63;5.47;;;18.40;99.90;;;;;;5134092;27;20055;-76
2023/09/07 04:22:47;;;;;;;11.50;5.57;;;18.50;99.90;;;;;;5133743;27;20055;-72
2023/09/07 04:25:33;;;;;;;8.95;5.82;;;18.50;99.90;;;;;;5119434;27;20047;-73
2023/09/07 04:28:19;;;;;;;12.57;5.65;;;18.50;99.90;;;;;;5133746;27;20058;-73
2023/09/07 04:31:06;;;;;;;12.00;5.63;;;18.50;99.90;;;;;;5133426;27;20153;-82
2023/09/07 04:33:52;;;;;;;21.90;10.27;;;18.50;99.90;;;;;;5115092;27;20043;-84
2023/09/07 04:36:38;;;;;;;27.48;9.88;;;18.50;99.90;;;;;;5114103;27;20142;-85
2023/09/07 04:39:24;;;;;;;24.92;9.52;;;18.50;99.90;;;;;;5136679;27;20399;-85
2023/09/07 04:42:10;;;;;;;21.58;8.68;;;18.50;99.90;;;;;;5139089;27;20043;-83
2023/09/07 04:44:56;;;;;;;19.40;7.07;;;18.60;99.90;;;;;;5132389;27;20104;-80
2023/09/07 04:47:42;;;;;;;12.85;5.70;;;18.60;99.90;;;;;;5115438;27;20111;-73
2023/09/07 04:50:28;;;;;;;10.85;5.50;;;18.60;99.90;;;;;;5116326;27;20047;-75
2023/09/07 04:53:14;;;;;;;11.82;6.35;;;18.60;99.90;;;;;;5134918;27;20047;-82
2023/09/07 04:56:01;;;;;;;10.82;5.78;;;18.70;99.90;;;;;;5116478;27;20083;-79
2023/09/07 04:58:47;;;;;;;7.95;4.78;;;18.70;99.90;;;;;;5133747;27;20043;-81
2023/09/07 05:01:33;;;;;;;8.18;4.20;;;18.80;99.90;;;;;;5102335;27;20138;-79
2023/09/07 05:04:19;;;;;;;9.38;5.22;;;18.80;99.90;;;;;;5133906;27;20051;-76
2023/09/07 05:07:05;;;;;;;10.57;5.47;;;18.80;99.90;;;;;;5114517;27;20074;-80
2023/09/07 05:09:51;;;;;;;10.30;4.80;;;18.80;99.90;;;;;;5119707;27;20130;-83
2023/09/07 05:12:37;;;;;;;11.23;5.20;;;18.80;99.90;;;;;;5133832;27;20047;-74
2023/09/07 05:15:23;;;;;;;12.60;5.72;;;18.90;99.90;;;;;;5133305;27;20043;-81
2023/09/07 05:18:09;;;;;;;7.28;4.50;;;18.90;99.90;;;;;;5114785;27;20517;-78
2023/09/07 05:20:55;;;;;;;9.65;4.53;;;19.00;99.90;;;;;;5133227;27;20209;-73
2023/09/07 05:23:42;;;;;;;8.45;5.22;;;18.90;99.90;;;;;;5133532;27;20422;-71
2023/09/07 05:26:28;;;;;;;7.45;4.97;;;18.90;99.90;;;;;;5133161;27;20054;-81
2023/09/07 05:29:14;;;;;;;8.70;5.28;;;18.90;99.90;;;;;;5134335;27;20043;-77
2023/09/07 05:32:00;;;;;;;7.43;4.50;;;18.80;99.90;;;;;;5132814;27;20039;-71
2023/09/07 05:34:46;;;;;;;9.73;6.20;;;18.80;99.90;;;;;;5114472;27;20050;-72
2023/09/07 05:37:32;;;;;;;8.20;5.32;;;18.70;99.90;;;;;;5117167;27;20047;-72
2023/09/07 05:40:18;;;;;;;7.90;5.10;;;18.70;99.90;;;;;;5118085;27;20054;-78
2023/09/07 05:43:05;;;;;;;9.32;5.80;;;18.70;99.90;;;;;;5120220;27;20055;-79
2023/09/07 05:45:51;;;;;;;10.57;5.70;;;18.60;99.90;;;;;;5121546;27;20055;-80
2023/09/07 05:48:37;;;;;;;11.57;5.05;;;18.60;99.90;;;;;;5133892;27;20050;-72
2023/09/07 05:51:23;;;;;;;9.85;5.88;;;18.70;99.90;;;;;;5113431;27;20065;-77
2023/09/07 05:54:09;;;;;;;9.02;6.22;;;18.70;99.90;;;;;;5132010;27;20055;-71
2023/09/07 05:56:55;;;;;;;10.02;6.28;;;18.70;99.90;;;;;;5113226;27;20055;-72
2023/09/07 05:59:41;;;;;;;8.73;5.38;;;18.80;99.90;;;;;;5131946;27;20399;-78
2023/09/07 06:02:27;;;;;;;10.15;5.50;;;18.80;99.90;;;;;;5115211;27;20064;-72
2023/09/07 06:05:14;;;;;;;8.95;5.07;;;18.80;99.90;;;;;;5114832;27;20049;-71
2023/09/07 06:08:00;;;;;;;7.45;4.63;;;18.90;99.90;;;;;;5133033;27;20062;-75
2023/09/07 06:10:46;;;;;;;11.88;5.63;;;18.90;99.90;;;;;;5132379;27;20467;-77
2023/09/07 06:13:32;;;;;;;10.88;6.30;;;18.90;99.90;;;;;;5132518;27;20046;-77
2023/09/07 06:16:18;;;;;;;9.20;6.22;;;19.00;99.90;;;;;;5132208;27;20162;-71
2023/09/07 06:19:05;;;;;;;9.70;5.47;;;19.00;99.90;;;;;;5130917;27;20110;-77
2023/09/07 06:21:51;;;;;;;10.73;5.70;;;19.10;99.90;;;;;;5131932;27;20053;-76
2023/09/07 06:24:37;;;;;;;12.07;5.78;;;19.10;99.90;;;;;;5133277;27;20492;-72
2023/09/07 06:27:23;;;;;;;8.93;5.38;;;19.20;99.90;;;;;;5133470;27;20047;-76
2023/09/07 06:30:10;;;;;;;9.60;5.32;;;19.20;99.90;;;;;;5133036;27;20534;-72
2023/09/07 06:32:57;;;;;;;8.77;5.88;;;19.30;99.90;;;;;;5131224;27;20096;-77
2023/09/07 06:35:43;;;;;;;8.00;5.95;;;19.30;99.90;;;;;;5131162;27;20058;-72
2023/09/07 06:38:29;;;;;;;8.95;6.30;;;19.40;99.90;;;;;;5113584;27;20490;-73
2023/09/07 06:41:15;;;;;;;9.43;5.50;;;19.40;99.90;;;;;;5099077;27;20074;-71
2023/09/07 06:44:02;;;;;;;8.63;5.70;;;19.60;99.90;;;;;;5112791;27;20050;-76
2023/09/07 06:46:49;;;;;;;8.25;5.18;;;19.70;99.90;;;;;;5114496;27;20507;-80
2023/09/07 06:49:37;;;;;;;8.63;6.00;;;19.80;99.90;;;;;;5131323;27;20078;-72
2023/09/07 06:52:23;;;;;;;8.43;5.78;;;20.00;99.90;;;;;;5131302;27;20043;-74
2023/09/07 06:55:09;;;;;;;8.32;5.68;;;20.10;99.90;;;;;;5130778;28;20797;-73
2023/09/07 06:57:55;;;;;;;11.55;6.65;;;20.40;99.90;;;;;;5099362;28;20086;-72
2023/09/07 07:00:43;;;;;;;11.10;5.50;;;20.60;99.90;;;;;;5130996;28;20046;-71
2023/09/07 07:03:30;;;;;;;8.40;5.13;;;20.70;99.90;;;;;;5113134;28;20059;-75
2023/09/07 07:06:16;;;;;;;8.07;5.50;;;20.80;99.90;;;;;;5132313;28;20047;-76
2023/09/07 07:09:02;;;;;;;10.23;5.80;;;21.00;99.90;;;;;;5134289;27;20118;-71
2023/09/07 07:11:49;;;;;;;9.52;5.05;;;21.00;99.90;;;;;;5116924;27;20077;-75
2023/09/07 07:14:35;;;;;;;12.70;6.38;;;21.10;99.90;;;;;;5103074;27;20047;-74
2023/09/07 07:17:21;;;;;;;9.23;5.00;;;21.20;99.90;;;;;;5120276;27;20051;-72
2023/09/07 07:20:08;;;;;;;8.60;4.57;;;21.40;99.90;;;;;;5135012;27;20054;-73
2023/09/07 07:22:54;;;;;;;10.23;4.90;;;21.70;99.90;;;;;;5134992;27;20043;-79
2023/09/07 07:25:40;;;;;;;10.45;5.03;;;21.80;99.90;;;;;;5135324;27;20130;-73
2023/09/07 07:28:26;;;;;;;10.98;4.80;;;22.00;99.90;;;;;;5117811;27;20043;-84
2023/09/07 07:31:12;;;;;;;7.82;4.43;;;22.10;99.90;;;;;;5118184;27;20062;-76
2023/09/07 07:33:58;;;;;;;11.07;4.57;;;22.30;99.90;;;;;;5119054;27;20066;-73
2023/09/07 07:36:44;;;;;;;11.68;5.95;;;22.50;99.90;;;;;;5117499;27;20047;-85
2023/09/07 07:39:30;;;;;;;16.33;7.35;;;22.70;99.90;;;;;;5117500;27;20116;-85
2023/09/07 07:42:18;;;;;;;10.20;5.95;;;23.00;99.90;;;;;;5134064;27;20499;-80
2023/09/07 07:45:04;;;;;;;10.25;5.38;;;23.20;99.90;;;;;;5134270;27;20440;-83
2023/09/07 07:47:52;;;;;;;9.18;5.55;;;23.50;99.90;;;;;;5115932;27;20115;-71
2023/09/07 07:50:39;;;;;;;10.40;4.85;;;23.60;99.90;;;;;;5134436;27;20058;-83
2023/09/07 07:53:25;;;;;;;12.27;4.97;;;23.80;99.90;;;;;;5136530;27;20047;-71
2023/09/07 07:56:16;;;;;;;10.43;4.25;;;24.10;99.90;;;;;;5134603;27;20049;-76
2023/09/07 07:59:03;;;;;;;7.60;4.40;;;24.30;99.20;;;;;;5134353;27;20043;-72
2023/09/07 08:01:49;;;;;;;8.02;3.90;;;24.50;98.90;;;;;;5134392;27;20126;-76
2023/09/07 08:04:35;;;;;;;8.73;3.90;;;24.70;99.10;;;;;;5135976;27;20217;-74
2023/09/07 08:07:21;;;;;;;8.73;3.80;;;24.90;98.90;;;;;;5117518;27;20105;-80
2023/09/07 08:10:11;;;;;;;5.80;3.38;;;25.10;98.50;;;;;;5117499;28;20055;-80
2023/09/07 08:12:57;;;;;;;7.90;3.58;;;25.30;98.20;;;;;;5114154;28;20057;-82
2023/09/07 08:15:43;;;;;;;6.78;3.58;;;25.50;97.80;;;;;;5095640;28;20398;-85
2023/09/07 08:18:32;;;;;;;9.60;3.53;;;25.60;97.30;;;;;;5114820;28;20043;-82
2023/09/07 08:21:18;;;;;;;8.68;3.38;;;25.70;96.90;;;;;;5114471;28;20097;-84
2023/09/07 08:24:05;;;;;;;8.57;3.65;;;25.90;97.00;;;;;;5116483;28;20101;-80
2023/09/07 08:26:54;;;;;;;11.23;3.83;;;25.90;96.50;;;;;;5114731;28;20047;-79
2023/09/07 08:29:40;;;;;;;9.43;4.05;;;26.00;96.10;;;;;;5113740;28;20411;-86
2023/09/07 08:32:26;;;;;;;5.35;3.38;;;26.00;95.40;;;;;;5099495;28;20035;-83
2023/09/07 08:35:16;;;;;;;8.45;4.47;;;26.00;95.10;;;;;;5113428;28;20063;-78
2023/09/07 08:38:08;;;;;;;8.95;3.60;;;26.20;95.00;;;;;;5115397;28;20075;-84
2023/09/07 08:40:57;;;;;;;7.05;3.42;;;26.40;95.30;;;;;;5101033;28;20048;-78
2023/09/07 08:43:49;;;;;;;10.73;3.78;;;26.50;95.30;;;;;;5114528;28;20048;-76
2023/09/07 08:46:36;;;;;;;7.85;3.38;;;26.60;95.40;;;;;;5113682;28;20054;-77
2023/09/07 08:49:23;;;;;;;9.02;3.78;;;26.70;95.10;;;;;;5113632;28;20051;-71
2023/09/07 08:52:09;;;;;;;6.70;3.85;;;26.90;94.50;;;;;;5112575;28;20487;-74
2023/09/07 08:54:58;;;;;;;6.80;3.42;;;27.00;94.30;;;;;;5115195;28;20498;-71
2023/09/07 08:57:44;;;;;;;7.53;3.40;;;27.00;94.40;;;;;;5094596;28;20139;-71
2023/09/07 09:00:30;;;;;;;8.52;3.88;;;27.10;94.30;;;;;;5111866;28;20058;-70
2023/09/07 09:03:16;;;;;;;11.40;3.28;;;27.20;94.60;;;;;;5113056;28;20047;-73
2023/09/07 09:06:07;;;;;;;10.30;3.70;;;27.40;93.80;;;;;;5096796;28;20063;-72
2023/09/07 09:08:55;;;;;;;8.88;3.30;;;27.50;93.40;;;;;;5079813;28;20047;-78
2023/09/07 09:11:42;;;;;;;6.30;3.20;;;27.70;93.40;;;;;;5112437;28;20047;-77
2023/09/07 09:14:30;;;;;;;9.80;3.28;;;27.70;92.90;;;;;;5113230;28;20466;-73
2023/09/07 09:17:16;;;;;;;5.88;3.55;;;27.80;92.80;;;;;;5114091;28;20055;-75
2023/09/07 09:20:06;;;;;;;6.47;3.55;;;28.00;92.50;;;;;;5113002;28;20483;-76
2023/09/07 09:22:53;;;;;;;5.78;3.30;;;28.10;92.20;;;;;;5093780;28;20092;-80
2023/09/07 09:25:41;;;;;;;6.82;3.58;;;28.20;91.80;;;;;;5111650;28;20059;-78
2023/09/07 09:28:27;;;;;;;6.97;3.25;;;28.30;91.50;;;;;;5112916;28;20051;-72
2023/09/07 09:31:14;;;;;;;7.90;3.42;;;28.30;91.70;;;;;;5110928;28;20040;-75
2023/09/07 09:34:00;;;;;;;7.70;3.20;;;28.50;91.70;;;;;;5112305;28;20051;-80
2023/09/07 09:36:47;;;;;;;12.63;3.80;;;28.80;91.60;;;;;;5113524;28;20070;-81
2023/09/07 09:39:33;;;;;;;9.90;3.40;;;28.90;90.80;;;;;;5093466;28;20116;-71
2023/09/07 09:42:21;;;;;;;6.47;3.45;;;29.10;90.40;;;;;;5113384;28;20048;-72
2023/09/07 09:45:08;;;;;;;7.50;3.65;;;29.10;89.30;;;;;;5094245;28;20044;-71
2023/09/07 09:47:59;;;;;;;5.07;3.00;;;29.30;89.70;;;;;;5097137;28;20047;-73
2023/09/07 09:50:50;;;;;;;8.98;3.78;;;29.50;89.70;;;;;;5110561;28;20575;-71
2023/09/07 09:53:36;;;;;;;8.65;3.33;;;29.70;88.20;;;;;;5111329;28;20043;-71
2023/09/07 09:56:23;;;;;;;6.75;3.40;;;29.80;88.20;;;;;;5111759;28;20040;-72
2023/09/07 09:59:09;;;;;;;7.85;3.33;;;29.90;88.10;;;;;;5097091;28;20063;-74
2023/09/07 10:01:56;;;;;;;6.68;3.25;;;30.00;86.90;;;;;;5112323;28;20116;-77
2023/09/07 10:04:43;;;;;;;8.15;3.42;;;30.20;85.80;;;;;;5111696;28;20071;-74
2023/09/07 10:07:42;;;;;;;7.18;3.30;;;30.30;86.50;;;;;;5092275;28;20169;-73
2023/09/07 10:10:33;;;;;;;8.57;3.55;;;30.60;85.10;;;;;;5112492;28;20052;-75
2023/09/07 10:13:35;;;;;;;5.15;3.10;;;30.50;82.10;;;;;;5094685;28;20116;-72
2023/09/07 10:16:22;;;;;;;15.45;4.20;;;30.60;83.80;;;;;;5110477;28;20452;-75
2023/09/07 10:19:24;;;;;;;6.20;3.28;;;30.90;84.20;;;;;;5111635;28;20631;-77
2023/09/07 10:22:23;;;;;;;7.53;3.40;;;30.90;81.90;;;;;;5110331;28;20157;-81
2023/09/07 10:25:22;;;;;;;8.35;2.95;;;31.10;80.60;;;;;;5080119;28;20043;-72
2023/09/07 10:28:23;;;;;;;8.93;3.30;;;31.30;81.40;;;;;;5098010;28;20109;-74
2023/09/07 10:31:18;;;;;;;9.15;3.17;;;31.50;80.00;;;;;;5113320;28;20039;-78
2023/09/07 10:34:12;;;;;;;6.32;3.13;;;31.50;78.20;;;;;;5106639;28;20048;-84
2023/09/07 10:36:58;;;;;;;4.97;2.33;;;31.80;80.50;;;;;;5113889;28;20142;-86
2023/09/07 10:39:45;;;;;;;10.05;3.70;;;31.90;79.40;;;;;;5109945;28;20047;-72
2023/09/07 10:42:33;;;;;;;4.65;3.03;;;31.90;77.90;;;;;;5078525;28;20051;-80
2023/09/07 10:45:19;;;;;;;6.57;3.33;;;32.20;78.20;;;;;;5110112;28;20501;-79
2023/09/07 10:48:06;;;;;;;6.63;3.20;;;32.40;78.00;;;;;;5111535;28;20101;-78
2023/09/07 10:50:52;;;;;;;6.70;3.45;;;32.50;77.00;;;;;;5093297;28;20058;-81
2023/09/07 10:53:39;;;;;;;7.95;2.92;;;32.60;76.90;;;;;;5110126;28;20059;-77
2023/09/07 10:56:28;;;;;;;8.07;3.60;;;32.80;77.40;;;;;;5111518;28;20043;-74
2023/09/07 10:59:14;;;;;;;8.23;4.13;;;32.90;76.40;;;;;;5112131;28;20047;-85
2023/09/07 11:02:06;;;;;;;5.90;3.53;;;33.10;75.50;;;;;;5114087;28;20048;-75
2023/09/07 11:04:53;;;;;;;5.28;2.90;;;32.90;75.30;;;;;;5111215;28;20534;-73
2023/09/07 11:07:43;;;;;;;6.18;3.13;;;33.30;75.20;;;;;;5091550;28;20475;-76
2023/09/07 11:10:33;;;;;;;6.20;2.90;;;33.20;75.20;;;;;;5111360;28;20062;-74
2023/09/07 11:13:20;;;;;;;4.22;2.55;;;33.50;75.00;;;;;;5131351;28;20051;-77
2023/09/07 11:16:09;;;;;;;7.22;3.20;;;33.90;73.00;;;;;;5131566;28;20616;-78
2023/09/07 11:18:56;;;;;;;6.03;3.10;;;34.20;71.20;;;;;;5131195;28;20047;-75
2023/09/07 11:21:42;;;;;;;5.43;3.20;;;34.30;71.10;;;;;;5130301;28;20503;-84
2023/09/07 11:24:29;;;;;;;8.57;3.10;;;34.60;72.80;;;;;;5130836;28;20433;-72
2023/09/07 11:27:18;;;;;;;7.47;3.10;;;35.00;72.30;;;;;;5112865;28;20596;-83
2023/09/07 11:30:07;;;;;;;6.43;3.15;;;35.30;72.10;;;;;;5132688;28;20195;-73
2023/09/07 11:33:07;;;;;;;4.95;3.00;;;35.70;70.70;;;;;;5111543;28;20475;-74
2023/09/07 11:35:56;;;;;;;5.20;3.55;;;35.60;68.10;;;;;;5130496;28;20051;-80
2023/09/07 11:38:44;;;;;;;6.57;3.15;;;35.70;68.00;;;;;;5111784;28;20570;-75
2023/09/07 11:41:30;;;;;;;5.75;2.92;;;36.00;66.60;;;;;;5131180;28;20055;-81
2023/09/07 11:44:16;;;;;;;6.30;3.10;;;36.00;66.90;;;;;;5130963;28;20046;-82
2023/09/07 11:47:04;;;;;;;5.50;3.05;;;36.60;65.40;;;;;;5113506;28;20047;-74
2023/09/07 11:49:52;;;;;;;6.97;3.10;;;36.30;64.70;;;;;;5116498;28;20503;-72
2023/09/07 11:52:38;;;;;;;6.57;3.35;;;36.10;64.60;;;;;;5131681;28;20047;-74
2023/09/07 11:55:25;;;;;;;6.00;3.25;;;36.00;64.10;;;;;;5135637;27;20043;-72
2023/09/07 11:58:11;;;;;;;8.00;3.25;;;35.90;63.90;;;;;;5137879;27;20133;-76
2023/09/07 12:00:57;;;;;;;6.43;3.08;;;36.50;63.60;;;;;;5138348;27;20043;-81
2023/09/07 12:03:44;;;;;;;7.95;2.83;;;36.60;63.00;;;;;;5135765;27;20054;-77
2023/09/07 12:06:30;;;;;;;5.85;2.42;;;37.00;63.30;;;;;;5108628;27;20079;-73
2023/09/07 12:09:17;;;;;;;8.55;3.30;;;37.40;62.30;;;;;;5112881;28;20044;-74
2023/09/07 12:12:03;;;;;;;8.25;3.35;;;37.60;62.50;;;;;;5114443;28;20047;-74
2023/09/07 12:14:50;;;;;;;6.43;3.33;;;37.90;61.40;;;;;;5095808;28;20055;-72
2023/09/07 12:17:36;;;;;;;5.95;3.10;;;38.40;60.00;;;;;;5114656;28;20052;-74
2023/09/07 12:20:22;;;;;;;7.18;2.88;;;38.50;58.60;;;;;;5115476;28;20047;-79
2023/09/07 12:23:08;;;;;;;7.85;3.38;;;39.00;57.60;;;;;;5114095;28;20043;-75
2023/09/07 12:25:55;;;;;;;5.43;3.10;;;39.30;57.40;;;;;;5112875;28;20492;-75
2023/09/07 12:28:41;;;;;;;4.18;2.10;;;39.70;57.70;;;;;;5097574;28;20048;-74
2023/09/07 12:31:27;;;;;;;6.47;3.13;;;40.10;56.40;;;;;;5097853;28;20134;-75
2023/09/07 12:34:14;;;;;;;11.13;2.60;;;40.50;56.10;;;;;;5113172;28;20148;-72
2023/09/07 12:37:01;;;;;;;5.32;2.65;;;40.30;53.80;;;;;;5112476;28;20086;-73
2023/09/07 12:39:47;;;;;;;6.57;2.67;;;40.00;52.20;;;;;;5093939;28;20047;-73
2023/09/07 12:42:33;;;;;;;4.93;2.40;;;40.40;53.20;;;;;;5082204;28;20150;-76
2023/09/07 12:45:19;;;;;;;4.60;2.60;;;40.40;53.30;;;;;;5100060;28;20109;-74
2023/09/07 12:48:06;;;;;;;5.03;2.63;;;41.00;52.20;;;;;;5095995;28;20039;-86
2023/09/07 12:50:53;;;;;;;4.78;3.03;;;41.50;51.30;;;;;;5099072;28;20048;-78
2023/09/07 12:53:39;;;;;;;8.70;3.38;;;42.10;50.70;;;;;;5098855;28;20105;-82
2023/09/07 12:56:25;;;;;;;9.63;2.80;;;42.30;49.10;;;;;;5114860;28;20055;-77
2023/09/07 12:59:11;;;;;;;7.30;3.53;;;42.40;49.30;;;;;;5116869;28;20043;-81
2023/09/07 13:01:58;;;;;;;6.82;2.50;;;42.80;48.20;;;;;;5116780;28;20053;-78
2023/09/07 13:04:44;;;;;;;5.00;2.80;;;42.70;47.60;;;;;;5097766;28;20047;-85
2023/09/07 13:07:32;;;;;;;11.00;3.50;;;43.40;47.30;;;;;;5115340;28;20047;-81
2023/09/07 13:10:18;;;;;;;5.35;2.83;;;43.40;47.00;;;;;;5114249;28;20051;-72
2023/09/07 13:13:04;;;;;;;5.88;3.10;;;43.30;46.80;;;;;;5113919;28;20043;-73
2023/09/07 13:15:50;;;;;;;5.35;2.45;;;43.20;44.90;;;;;;5099919;28;20096;-73
2023/09/07 13:18:36;;;;;;;8.35;2.90;;;43.50;45.70;;;;;;5118483;28;20043;-80
2023/09/07 13:21:23;;;;;;;5.45;2.80;;;43.70;45.40;;;;;;5099586;28;20051;-75
2023/09/07 13:24:09;;;;;;;4.80;2.40;;;43.80;44.40;;;;;;5117368;28;20056;-72
2023/09/07 13:26:56;;;;;;;6.97;2.63;;;44.40;45.20;;;;;;5115028;28;20458;-74
2023/09/07 13:29:42;;;;;;;5.18;2.80;;;43.90;44.20;;;;;;5115845;28;20055;-73
2023/09/07 13:32:29;;;;;;;5.80;3.00;;;44.20;44.30;;;;;;5112342;28;20047;-74
2023/09/07 13:35:16;;;;;;;4.32;2.50;;;43.80;44.30;;;;;;5111081;28;20055;-71
2023/09/07 13:38:02;;;;;;;8.35;3.13;;;44.40;45.50;;;;;;5111077;28;20051;-82
2023/09/07 13:40:48;;;;;;;5.13;3.00;;;44.80;44.80;;;;;;5094609;28;20117;-78
2023/09/07 13:43:34;;;;;;;4.97;2.78;;;45.20;44.50;;;;;;5096164;28;20040;-83
2023/09/07 13:46:20;;;;;;;4.60;3.13;;;44.90;43.90;;;;;;5112328;28;20059;-72
2023/09/07 13:49:06;;;;;;;7.32;3.15;;;45.30;44.20;;;;;;5112216;28;20055;-71
2023/09/07 13:51:52;;;;;;;6.32;3.15;;;45.70;44.00;;;;;;5098112;28;20051;-73
2023/09/07 13:54:39;;;;;;;5.07;3.42;;;45.80;44.50;;;;;;5092496;28;20047;-85
2023/09/07 13:57:25;;;;;;;7.40;2.95;;;46.10;43.90;;;;;;5094405;28;20055;-78
2023/09/07 14:00:11;;;;;;;10.05;3.00;;;46.30;42.90;;;;;;5111752;28;20059;-76
2023/09/07 14:02:57;;;;;;;4.80;3.13;;;46.20;42.30;;;;;;5112782;28;20048;-79
2023/09/07 14:05:44;;;;;;;5.25;3.05;;;46.60;42.80;;;;;;5112965;28;20056;-75
2023/09/07 14:08:33;;;;;;;7.88;2.72;;;46.70;42.20;;;;;;5093938;28;20610;-84
2023/09/07 14:11:19;;;;;;;7.15;2.97;;;46.30;41.90;;;;;;5091482;28;20492;-71
2023/09/07 14:14:06;;;;;;;6.47;2.95;;;46.40;42.60;;;;;;5073377;28;20226;-73
2023/09/07 14:16:56;;;;;;;5.97;3.00;;;46.70;42.00;;;;;;5091348;28;20051;-72
2023/09/07 14:19:42;;;;;;;5.68;2.65;;;46.50;41.90;;;;;;5093361;28;20044;-71
2023/09/07 14:22:28;;;;;;;5.38;2.72;;;47.10;42.60;;;;;;5093144;28;20446;-74
2023/09/07 14:25:16;;;;;;;6.35;2.85;;;46.70;41.80;;;;;;5093281;28;20048;-73
2023/09/07 14:28:02;;;;;;;7.93;3.58;;;47.10;42.10;;;;;;5092131;28;20132;-72